sensor_id;sensor_type;location;lat;lon;timestamp;P1;durP1;ratioP1;P2;durP2;ratioP2
15665;SDS011;20725;51.196;3.510;2023-03-24T00:01:48;3.10;;;2.80;;
15665;SDS011;20725;51.196;3.510;2023-03-24T00:04:17;4.73;;;3.23;;
15665;SDS011;20725;51.196;3.510;2023-03-24T00:06:44;3.77;;;2.47;;
15665;SDS011;20725;51.196;3.510;2023-03-24T00:09:13;3.10;;;2.50;;
15665;SDS011;20725;51.196;3.510;2023-03-24T00:11:41;3.60;;;3.30;;
15665;SDS011;20725;51.196;3.510;2023-03-24T00:14:08;3.73;;;2.67;;
15665;SDS011;20725;51.196;3.510;2023-03-24T00:16:36;3.97;;;2.53;;
15665;SDS011;20725;51.196;3.510;2023-03-24T00:19:06;3.87;;;2.93;;
15665;SDS011;20725;51.196;3.510;2023-03-24T00:21:36;2.93;;;2.50;;
15665;SDS011;20725;51.196;3.510;2023-03-24T00:24:04;2.70;;;2.43;;
15665;SDS011;20725;51.196;3.510;2023-03-24T00:26:32;2.70;;;2.30;;
15665;SDS011;20725;51.196;3.510;2023-03-24T00:29:02;5.43;;;2.77;;
15665;SDS011;20725;51.196;3.510;2023-03-24T00:31:30;6.80;;;3.30;;
15665;SDS011;20725;51.196;3.510;2023-03-24T00:33:58;3.67;;;2.70;;
15665;SDS011;20725;51.196;3.510;2023-03-24T00:36:27;3.50;;;2.97;;
15665;SDS011;20725;51.196;3.510;2023-03-24T00:38:56;3.67;;;2.97;;
15665;SDS011;20725;51.196;3.510;2023-03-24T00:41:23;3.00;;;2.67;;
15665;SDS011;20725;51.196;3.510;2023-03-24T00:43:53;3.60;;;2.63;;
15665;SDS011;20725;51.196;3.510;2023-03-24T00:46:22;3.50;;;2.90;;
15665;SDS011;20725;51.196;3.510;2023-03-24T00:48:52;3.30;;;3.00;;
15665;SDS011;20725;51.196;3.510;2023-03-24T00:51:22;5.83;;;3.33;;
15665;SDS011;20725;51.196;3.510;2023-03-24T00:53:49;3.27;;;2.97;;
15665;SDS011;20725;51.196;3.510;2023-03-24T00:56:23;9.63;;;3.87;;
15665;SDS011;20725;51.196;3.510;2023-03-24T00:58:52;5.33;;;3.80;;
15665;SDS011;20725;51.196;3.510;2023-03-24T01:06:26;4.13;;;2.60;;
15665;SDS011;20725;51.196;3.510;2023-03-24T01:08:54;3.03;;;2.13;;
15665;SDS011;20725;51.196;3.510;2023-03-24T01:11:25;3.40;;;2.03;;
15665;SDS011;20725;51.196;3.510;2023-03-24T01:13:52;3.20;;;2.20;;
15665;SDS011;20725;51.196;3.510;2023-03-24T01:16:20;2.33;;;1.80;;
15665;SDS011;20725;51.196;3.510;2023-03-24T01:18:49;1.67;;;1.53;;
15665;SDS011;20725;51.196;3.510;2023-03-24T01:21:16;2.87;;;1.43;;
15665;SDS011;20725;51.196;3.510;2023-03-24T01:23:43;1.93;;;1.73;;
15665;SDS011;20725;51.196;3.510;2023-03-24T01:26:11;1.63;;;1.40;;
15665;SDS011;20725;51.196;3.510;2023-03-24T01:28:40;3.90;;;1.23;;
15665;SDS011;20725;51.196;3.510;2023-03-24T01:31:08;3.57;;;1.37;;
15665;SDS011;20725;51.196;3.510;2023-03-24T01:33:36;2.93;;;1.90;;
15665;SDS011;20725;51.196;3.510;2023-03-24T01:36:03;2.23;;;1.47;;
15665;SDS011;20725;51.196;3.510;2023-03-24T01:38:32;5.03;;;1.87;;
15665;SDS011;20725;51.196;3.510;2023-03-24T01:40:59;3.37;;;1.70;;
15665;SDS011;20725;51.196;3.510;2023-03-24T01:43:27;2.87;;;1.57;;
15665;SDS011;20725;51.196;3.510;2023-03-24T01:46:04;2.07;;;1.80;;
15665;SDS011;20725;51.196;3.510;2023-03-24T01:48:34;2.50;;;1.70;;
15665;SDS011;20725;51.196;3.510;2023-03-24T01:51:06;3.43;;;1.70;;
15665;SDS011;20725;51.196;3.510;2023-03-24T01:53:41;4.70;;;1.73;;
15665;SDS011;20725;51.196;3.510;2023-03-24T01:56:10;5.77;;;2.27;;
15665;SDS011;20725;51.196;3.510;2023-03-24T01:58:39;6.67;;;2.00;;
15665;SDS011;20725;51.196;3.510;2023-03-24T02:01:12;4.13;;;2.37;;
15665;SDS011;20725;51.196;3.510;2023-03-24T02:03:41;5.90;;;2.67;;
15665;SDS011;20725;51.196;3.510;2023-03-24T02:06:09;6.70;;;2.40;;
15665;SDS011;20725;51.196;3.510;2023-03-24T02:08:39;6.90;;;2.60;;
15665;SDS011;20725;51.196;3.510;2023-03-24T02:11:12;5.70;;;2.60;;
15665;SDS011;20725;51.196;3.510;2023-03-24T02:13:39;6.70;;;2.20;;
15665;SDS011;20725;51.196;3.510;2023-03-24T02:16:17;8.37;;;2.40;;
15665;SDS011;20725;51.196;3.510;2023-03-24T02:19:06;4.53;;;1.93;;
15665;SDS011;20725;51.196;3.510;2023-03-24T02:28:27;4.50;;;2.50;;
15665;SDS011;20725;51.196;3.510;2023-03-24T02:31:11;8.13;;;3.40;;
15665;SDS011;20725;51.196;3.510;2023-03-24T02:33:51;10.73;;;2.23;;
15665;SDS011;20725;51.196;3.510;2023-03-24T02:41:50;8.07;;;3.03;;
15665;SDS011;20725;51.196;3.510;2023-03-24T02:44:20;9.80;;;2.90;;
15665;SDS011;20725;51.196;3.510;2023-03-24T02:46:52;9.47;;;3.00;;
15665;SDS011;20725;51.196;3.510;2023-03-24T02:49:24;8.23;;;2.87;;
15665;SDS011;20725;51.196;3.510;2023-03-24T02:51:56;8.73;;;3.10;;
15665;SDS011;20725;51.196;3.510;2023-03-24T02:54:26;6.37;;;3.07;;
15665;SDS011;20725;51.196;3.510;2023-03-24T02:56:58;10.77;;;2.93;;
15665;SDS011;20725;51.196;3.510;2023-03-24T02:59:31;12.30;;;3.60;;
15665;SDS011;20725;51.196;3.510;2023-03-24T03:02:02;15.87;;;3.23;;
15665;SDS011;20725;51.196;3.510;2023-03-24T03:04:33;10.03;;;2.70;;
15665;SDS011;20725;51.196;3.510;2023-03-24T03:07:02;13.20;;;3.60;;
15665;SDS011;20725;51.196;3.510;2023-03-24T03:09:34;11.10;;;3.67;;
15665;SDS011;20725;51.196;3.510;2023-03-24T03:12:03;12.80;;;3.60;;
15665;SDS011;20725;51.196;3.510;2023-03-24T03:14:33;12.33;;;3.73;;
15665;SDS011;20725;51.196;3.510;2023-03-24T03:17:02;13.43;;;3.27;;
15665;SDS011;20725;51.196;3.510;2023-03-24T03:19:32;10.53;;;3.70;;
15665;SDS011;20725;51.196;3.510;2023-03-24T03:22:01;13.67;;;3.63;;
15665;SDS011;20725;51.196;3.510;2023-03-24T03:24:31;14.10;;;4.10;;
15665;SDS011;20725;51.196;3.510;2023-03-24T03:27:00;14.33;;;3.50;;
15665;SDS011;20725;51.196;3.510;2023-03-24T03:29:32;18.20;;;3.63;;
15665;SDS011;20725;51.196;3.510;2023-03-24T03:32:01;16.73;;;3.80;;
15665;SDS011;20725;51.196;3.510;2023-03-24T03:34:33;14.27;;;3.57;;
15665;SDS011;20725;51.196;3.510;2023-03-24T03:37:03;12.07;;;3.20;;
15665;SDS011;20725;51.196;3.510;2023-03-24T03:39:31;12.87;;;3.63;;
15665;SDS011;20725;51.196;3.510;2023-03-24T03:42:00;13.33;;;3.60;;
15665;SDS011;20725;51.196;3.510;2023-03-24T03:44:28;11.37;;;3.43;;
15665;SDS011;20725;51.196;3.510;2023-03-24T03:46:56;11.33;;;3.27;;
15665;SDS011;20725;51.196;3.510;2023-03-24T03:49:24;18.33;;;4.17;;
15665;SDS011;20725;51.196;3.510;2023-03-24T03:51:51;13.43;;;4.03;;
15665;SDS011;20725;51.196;3.510;2023-03-24T03:54:19;13.53;;;3.27;;
15665;SDS011;20725;51.196;3.510;2023-03-24T03:56:47;13.80;;;3.23;;
15665;SDS011;20725;51.196;3.510;2023-03-24T03:59:23;13.30;;;3.00;;
15665;SDS011;20725;51.196;3.510;2023-03-24T04:01:51;15.73;;;3.83;;
15665;SDS011;20725;51.196;3.510;2023-03-24T04:04:30;14.93;;;3.73;;
15665;SDS011;20725;51.196;3.510;2023-03-24T04:07:02;16.40;;;3.67;;
15665;SDS011;20725;51.196;3.510;2023-03-24T04:09:36;19.03;;;4.10;;
15665;SDS011;20725;51.196;3.510;2023-03-24T04:12:10;7.00;;;3.00;;
15665;SDS011;20725;51.196;3.510;2023-03-24T04:14:50;14.67;;;3.97;;
15665;SDS011;20725;51.196;3.510;2023-03-24T04:17:24;15.37;;;3.83;;
15665;SDS011;20725;51.196;3.510;2023-03-24T04:19:59;16.60;;;4.43;;
15665;SDS011;20725;51.196;3.510;2023-03-24T04:22:32;14.63;;;3.60;;
15665;SDS011;20725;51.196;3.510;2023-03-24T04:25:05;15.47;;;3.67;;
15665;SDS011;20725;51.196;3.510;2023-03-24T04:27:35;19.50;;;3.63;;
15665;SDS011;20725;51.196;3.510;2023-03-24T04:30:06;20.07;;;4.53;;
15665;SDS011;20725;51.196;3.510;2023-03-24T04:32:39;17.30;;;4.07;;
15665;SDS011;20725;51.196;3.510;2023-03-24T04:35:10;12.47;;;3.90;;
15665;SDS011;20725;51.196;3.510;2023-03-24T04:37:38;11.23;;;3.07;;
15665;SDS011;20725;51.196;3.510;2023-03-24T04:40:07;13.07;;;3.60;;
15665;SDS011;20725;51.196;3.510;2023-03-24T04:42:35;17.47;;;3.60;;
15665;SDS011;20725;51.196;3.510;2023-03-24T04:45:04;15.40;;;3.43;;
15665;SDS011;20725;51.196;3.510;2023-03-24T04:47:33;16.20;;;3.37;;
15665;SDS011;20725;51.196;3.510;2023-03-24T04:50:03;22.73;;;4.67;;
15665;SDS011;20725;51.196;3.510;2023-03-24T04:52:34;17.70;;;3.80;;
15665;SDS011;20725;51.196;3.510;2023-03-24T04:55:01;14.57;;;3.47;;
15665;SDS011;20725;51.196;3.510;2023-03-24T04:57:29;12.50;;;3.93;;
15665;SDS011;20725;51.196;3.510;2023-03-24T04:59:57;16.50;;;3.90;;
15665;SDS011;20725;51.196;3.510;2023-03-24T05:02:24;11.33;;;3.40;;
15665;SDS011;20725;51.196;3.510;2023-03-24T05:04:51;15.77;;;3.63;;
15665;SDS011;20725;51.196;3.510;2023-03-24T05:07:18;15.53;;;4.27;;
15665;SDS011;20725;51.196;3.510;2023-03-24T05:09:47;17.03;;;4.00;;
15665;SDS011;20725;51.196;3.510;2023-03-24T05:12:14;12.03;;;3.37;;
15665;SDS011;20725;51.196;3.510;2023-03-24T05:14:41;16.17;;;3.60;;
15665;SDS011;20725;51.196;3.510;2023-03-24T05:17:08;16.00;;;4.10;;
15665;SDS011;20725;51.196;3.510;2023-03-24T05:19:36;19.10;;;4.27;;
15665;SDS011;20725;51.196;3.510;2023-03-24T05:22:03;17.63;;;4.13;;
15665;SDS011;20725;51.196;3.510;2023-03-24T05:24:30;20.43;;;4.00;;
15665;SDS011;20725;51.196;3.510;2023-03-24T05:27:00;14.83;;;3.67;;
15665;SDS011;20725;51.196;3.510;2023-03-24T05:29:27;25.07;;;4.00;;
15665;SDS011;20725;51.196;3.510;2023-03-24T05:31:54;15.13;;;3.43;;
15665;SDS011;20725;51.196;3.510;2023-03-24T05:34:21;15.97;;;3.67;;
15665;SDS011;20725;51.196;3.510;2023-03-24T05:36:49;17.13;;;4.07;;
15665;SDS011;20725;51.196;3.510;2023-03-24T05:39:16;13.03;;;3.20;;
15665;SDS011;20725;51.196;3.510;2023-03-24T05:41:43;16.60;;;3.57;;
15665;SDS011;20725;51.196;3.510;2023-03-24T05:44:12;12.50;;;3.93;;
15665;SDS011;20725;51.196;3.510;2023-03-24T05:46:39;18.23;;;3.70;;
15665;SDS011;20725;51.196;3.510;2023-03-24T05:49:07;14.33;;;3.23;;
15665;SDS011;20725;51.196;3.510;2023-03-24T05:51:34;16.87;;;3.53;;
15665;SDS011;20725;51.196;3.510;2023-03-24T05:54:01;19.40;;;3.47;;
15665;SDS011;20725;51.196;3.510;2023-03-24T05:56:30;19.20;;;4.03;;
15665;SDS011;20725;51.196;3.510;2023-03-24T05:58:58;15.23;;;3.97;;
15665;SDS011;20725;51.196;3.510;2023-03-24T06:01:26;13.53;;;3.23;;
15665;SDS011;20725;51.196;3.510;2023-03-24T06:03:54;13.97;;;3.70;;
15665;SDS011;20725;51.196;3.510;2023-03-24T06:06:21;12.73;;;3.30;;
15665;SDS011;20725;51.196;3.510;2023-03-24T06:08:50;18.80;;;5.23;;
15665;SDS011;20725;51.196;3.510;2023-03-24T06:11:19;13.50;;;3.27;;
15665;SDS011;20725;51.196;3.510;2023-03-24T06:13:46;5.10;;;2.83;;
15665;SDS011;20725;51.196;3.510;2023-03-24T06:16:14;16.23;;;4.00;;
15665;SDS011;20725;51.196;3.510;2023-03-24T06:18:44;14.47;;;3.57;;
15665;SDS011;20725;51.196;3.510;2023-03-24T06:21:16;9.27;;;2.67;;
15665;SDS011;20725;51.196;3.510;2023-03-24T06:23:44;18.70;;;3.90;;
15665;SDS011;20725;51.196;3.510;2023-03-24T06:26:11;6.97;;;2.80;;
15665;SDS011;20725;51.196;3.510;2023-03-24T06:28:39;15.73;;;3.83;;
15665;SDS011;20725;51.196;3.510;2023-03-24T06:31:07;15.03;;;3.23;;
15665;SDS011;20725;51.196;3.510;2023-03-24T06:33:38;13.50;;;3.70;;
15665;SDS011;20725;51.196;3.510;2023-03-24T06:36:08;16.93;;;3.83;;
15665;SDS011;20725;51.196;3.510;2023-03-24T06:38:36;15.43;;;3.27;;
15665;SDS011;20725;51.196;3.510;2023-03-24T06:41:03;14.67;;;3.50;;
15665;SDS011;20725;51.196;3.510;2023-03-24T06:43:31;14.30;;;4.40;;
15665;SDS011;20725;51.196;3.510;2023-03-24T06:45:58;10.93;;;3.67;;
15665;SDS011;20725;51.196;3.510;2023-03-24T06:48:25;12.50;;;3.57;;
15665;SDS011;20725;51.196;3.510;2023-03-24T06:50:53;7.20;;;3.60;;
15665;SDS011;20725;51.196;3.510;2023-03-24T06:53:22;13.77;;;3.80;;
15665;SDS011;20725;51.196;3.510;2023-03-24T06:55:49;14.83;;;3.80;;
15665;SDS011;20725;51.196;3.510;2023-03-24T06:58:16;21.07;;;3.73;;
15665;SDS011;20725;51.196;3.510;2023-03-24T07:00:43;12.70;;;3.53;;
15665;SDS011;20725;51.196;3.510;2023-03-24T07:03:12;14.23;;;4.07;;
15665;SDS011;20725;51.196;3.510;2023-03-24T07:05:39;15.00;;;3.30;;
15665;SDS011;20725;51.196;3.510;2023-03-24T07:08:07;11.30;;;2.70;;
15665;SDS011;20725;51.196;3.510;2023-03-24T07:10:37;11.33;;;3.50;;
15665;SDS011;20725;51.196;3.510;2023-03-24T07:13:05;11.53;;;3.00;;
15665;SDS011;20725;51.196;3.510;2023-03-24T07:15:36;11.60;;;3.10;;
15665;SDS011;20725;51.196;3.510;2023-03-24T07:18:03;16.43;;;3.70;;
15665;SDS011;20725;51.196;3.510;2023-03-24T07:20:30;15.40;;;2.63;;
15665;SDS011;20725;51.196;3.510;2023-03-24T07:22:57;13.40;;;2.90;;
15665;SDS011;20725;51.196;3.510;2023-03-24T07:25:25;11.70;;;4.13;;
15665;SDS011;20725;51.196;3.510;2023-03-24T07:27:54;12.23;;;2.93;;
15665;SDS011;20725;51.196;3.510;2023-03-24T07:30:21;10.93;;;3.37;;
15665;SDS011;20725;51.196;3.510;2023-03-24T07:32:49;16.20;;;3.70;;
15665;SDS011;20725;51.196;3.510;2023-03-24T07:35:18;24.20;;;3.97;;
15665;SDS011;20725;51.196;3.510;2023-03-24T07:37:46;14.83;;;4.50;;
15665;SDS011;20725;51.196;3.510;2023-03-24T07:40:14;12.20;;;3.23;;
15665;SDS011;20725;51.196;3.510;2023-03-24T07:42:42;14.30;;;3.53;;
15665;SDS011;20725;51.196;3.510;2023-03-24T07:45:11;11.80;;;3.43;;
15665;SDS011;20725;51.196;3.510;2023-03-24T07:47:41;8.50;;;2.97;;
15665;SDS011;20725;51.196;3.510;2023-03-24T07:50:09;13.33;;;3.70;;
15665;SDS011;20725;51.196;3.510;2023-03-24T07:52:37;17.40;;;3.93;;
15665;SDS011;20725;51.196;3.510;2023-03-24T07:55:04;15.00;;;3.07;;
15665;SDS011;20725;51.196;3.510;2023-03-24T07:57:32;11.00;;;4.10;;
15665;SDS011;20725;51.196;3.510;2023-03-24T08:00:01;14.67;;;3.33;;
15665;SDS011;20725;51.196;3.510;2023-03-24T08:02:33;12.30;;;3.27;;
15665;SDS011;20725;51.196;3.510;2023-03-24T08:05:01;10.50;;;3.13;;
15665;SDS011;20725;51.196;3.510;2023-03-24T08:07:29;12.03;;;3.53;;
15665;SDS011;20725;51.196;3.510;2023-03-24T08:09:57;8.87;;;3.17;;
15665;SDS011;20725;51.196;3.510;2023-03-24T08:12:24;13.43;;;3.97;;
15665;SDS011;20725;51.196;3.510;2023-03-24T08:14:52;16.10;;;3.53;;
15665;SDS011;20725;51.196;3.510;2023-03-24T08:17:19;14.67;;;4.27;;
15665;SDS011;20725;51.196;3.510;2023-03-24T08:19:48;16.53;;;3.93;;
15665;SDS011;20725;51.196;3.510;2023-03-24T08:22:15;13.73;;;3.03;;
15665;SDS011;20725;51.196;3.510;2023-03-24T08:24:42;13.63;;;3.47;;
15665;SDS011;20725;51.196;3.510;2023-03-24T08:27:09;14.77;;;4.27;;
15665;SDS011;20725;51.196;3.510;2023-03-24T08:29:37;8.77;;;2.87;;
15665;SDS011;20725;51.196;3.510;2023-03-24T08:32:04;16.73;;;2.87;;
15665;SDS011;20725;51.196;3.510;2023-03-24T08:34:31;12.03;;;3.50;;
15665;SDS011;20725;51.196;3.510;2023-03-24T08:37:00;10.17;;;2.57;;
15665;SDS011;20725;51.196;3.510;2023-03-24T08:39:27;15.73;;;3.87;;
15665;SDS011;20725;51.196;3.510;2023-03-24T08:41:59;12.63;;;3.30;;
15665;SDS011;20725;51.196;3.510;2023-03-24T08:44:27;11.03;;;3.30;;
15665;SDS011;20725;51.196;3.510;2023-03-24T08:46:54;8.33;;;3.10;;
15665;SDS011;20725;51.196;3.510;2023-03-24T08:49:21;11.13;;;3.27;;
15665;SDS011;20725;51.196;3.510;2023-03-24T08:51:48;12.03;;;3.40;;
15665;SDS011;20725;51.196;3.510;2023-03-24T08:54:17;13.63;;;2.97;;
15665;SDS011;20725;51.196;3.510;2023-03-24T08:56:45;8.93;;;3.43;;
15665;SDS011;20725;51.196;3.510;2023-03-24T08:59:12;11.87;;;3.00;;
15665;SDS011;20725;51.196;3.510;2023-03-24T09:01:40;15.00;;;3.07;;
15665;SDS011;20725;51.196;3.510;2023-03-24T09:04:07;8.57;;;3.13;;
15665;SDS011;20725;51.196;3.510;2023-03-24T09:06:34;14.30;;;3.20;;
15665;SDS011;20725;51.196;3.510;2023-03-24T09:09:01;13.63;;;3.37;;
15665;SDS011;20725;51.196;3.510;2023-03-24T09:11:30;12.27;;;3.33;;
15665;SDS011;20725;51.196;3.510;2023-03-24T09:13:57;10.67;;;3.47;;
15665;SDS011;20725;51.196;3.510;2023-03-24T09:16:25;14.10;;;3.20;;
15665;SDS011;20725;51.196;3.510;2023-03-24T09:18:52;11.80;;;3.27;;
15665;SDS011;20725;51.196;3.510;2023-03-24T09:21:19;10.37;;;3.57;;
15665;SDS011;20725;51.196;3.510;2023-03-24T09:23:46;12.40;;;3.27;;
15665;SDS011;20725;51.196;3.510;2023-03-24T09:26:13;13.70;;;3.57;;
15665;SDS011;20725;51.196;3.510;2023-03-24T09:28:42;13.17;;;3.37;;
15665;SDS011;20725;51.196;3.510;2023-03-24T09:31:09;10.73;;;2.87;;
15665;SDS011;20725;51.196;3.510;2023-03-24T09:33:36;12.67;;;3.10;;
15665;SDS011;20725;51.196;3.510;2023-03-24T09:36:04;11.17;;;3.43;;
15665;SDS011;20725;51.196;3.510;2023-03-24T09:38:31;16.13;;;3.17;;
15665;SDS011;20725;51.196;3.510;2023-03-24T09:40:59;12.23;;;3.23;;
15665;SDS011;20725;51.196;3.510;2023-03-24T09:43:29;12.57;;;3.80;;
15665;SDS011;20725;51.196;3.510;2023-03-24T09:45:58;10.33;;;2.97;;
15665;SDS011;20725;51.196;3.510;2023-03-24T09:48:30;11.67;;;2.40;;
15665;SDS011;20725;51.196;3.510;2023-03-24T09:51:00;10.97;;;2.80;;
15665;SDS011;20725;51.196;3.510;2023-03-24T09:53:30;7.13;;;2.33;;
15665;SDS011;20725;51.196;3.510;2023-03-24T09:56:02;6.93;;;2.20;;
15665;SDS011;20725;51.196;3.510;2023-03-24T09:58:30;8.17;;;2.70;;
15665;SDS011;20725;51.196;3.510;2023-03-24T10:01:02;8.37;;;2.53;;
15665;SDS011;20725;51.196;3.510;2023-03-24T10:03:29;5.53;;;2.00;;
15665;SDS011;20725;51.196;3.510;2023-03-24T10:05:57;7.27;;;2.10;;
15665;SDS011;20725;51.196;3.510;2023-03-24T10:08:27;5.90;;;2.20;;
15665;SDS011;20725;51.196;3.510;2023-03-24T10:10:56;6.73;;;2.30;;
15665;SDS011;20725;51.196;3.510;2023-03-24T10:13:27;9.43;;;2.27;;
15665;SDS011;20725;51.196;3.510;2023-03-24T10:15:58;5.03;;;1.80;;
15665;SDS011;20725;51.196;3.510;2023-03-24T10:18:31;4.90;;;1.87;;
15665;SDS011;20725;51.196;3.510;2023-03-24T10:21:01;4.47;;;1.70;;
15665;SDS011;20725;51.196;3.510;2023-03-24T10:23:33;5.57;;;2.27;;
15665;SDS011;20725;51.196;3.510;2023-03-24T10:26:04;7.33;;;2.17;;
15665;SDS011;20725;51.196;3.510;2023-03-24T10:28:37;9.90;;;2.37;;
15665;SDS011;20725;51.196;3.510;2023-03-24T10:31:08;5.57;;;2.00;;
15665;SDS011;20725;51.196;3.510;2023-03-24T10:33:38;4.57;;;1.87;;
15665;SDS011;20725;51.196;3.510;2023-03-24T10:36:07;4.60;;;2.00;;
15665;SDS011;20725;51.196;3.510;2023-03-24T10:38:35;3.13;;;1.93;;
15665;SDS011;20725;51.196;3.510;2023-03-24T10:41:03;6.87;;;2.07;;
15665;SDS011;20725;51.196;3.510;2023-03-24T10:43:30;5.20;;;2.07;;
15665;SDS011;20725;51.196;3.510;2023-03-24T10:45:57;6.63;;;1.73;;
15665;SDS011;20725;51.196;3.510;2023-03-24T10:48:32;5.53;;;2.00;;
15665;SDS011;20725;51.196;3.510;2023-03-24T10:51:01;5.43;;;1.87;;
15665;SDS011;20725;51.196;3.510;2023-03-24T10:53:30;7.30;;;2.20;;
15665;SDS011;20725;51.196;3.510;2023-03-24T10:55:58;8.23;;;2.40;;
15665;SDS011;20725;51.196;3.510;2023-03-24T10:58:27;4.97;;;1.90;;
15665;SDS011;20725;51.196;3.510;2023-03-24T11:00:55;7.90;;;2.10;;
15665;SDS011;20725;51.196;3.510;2023-03-24T11:03:24;7.30;;;1.93;;
15665;SDS011;20725;51.196;3.510;2023-03-24T11:05:56;6.33;;;2.20;;
15665;SDS011;20725;51.196;3.510;2023-03-24T11:08:26;6.63;;;2.40;;
15665;SDS011;20725;51.196;3.510;2023-03-24T11:10:54;7.20;;;2.20;;
15665;SDS011;20725;51.196;3.510;2023-03-24T11:13:26;5.77;;;2.00;;
15665;SDS011;20725;51.196;3.510;2023-03-24T11:15:55;8.37;;;2.47;;
15665;SDS011;20725;51.196;3.510;2023-03-24T11:18:23;7.77;;;2.40;;
15665;SDS011;20725;51.196;3.510;2023-03-24T11:20:51;12.00;;;2.60;;
15665;SDS011;20725;51.196;3.510;2023-03-24T11:23:19;5.27;;;2.40;;
15665;SDS011;20725;51.196;3.510;2023-03-24T11:25:49;6.10;;;2.30;;
15665;SDS011;20725;51.196;3.510;2023-03-24T11:28:19;7.77;;;2.50;;
15665;SDS011;20725;51.196;3.510;2023-03-24T11:30:48;7.20;;;2.60;;
15665;SDS011;20725;51.196;3.510;2023-03-24T11:33:17;6.70;;;2.50;;
15665;SDS011;20725;51.196;3.510;2023-03-24T11:35:46;5.03;;;2.20;;
15665;SDS011;20725;51.196;3.510;2023-03-24T11:38:15;4.43;;;2.40;;
15665;SDS011;20725;51.196;3.510;2023-03-24T11:40:52;8.40;;;2.77;;
15665;SDS011;20725;51.196;3.510;2023-03-24T11:43:22;6.00;;;2.37;;
15665;SDS011;20725;51.196;3.510;2023-03-24T11:45:51;7.80;;;2.17;;
15665;SDS011;20725;51.196;3.510;2023-03-24T11:48:23;4.80;;;2.20;;
15665;SDS011;20725;51.196;3.510;2023-03-24T11:50:51;5.77;;;2.30;;
15665;SDS011;20725;51.196;3.510;2023-03-24T11:53:22;7.10;;;2.17;;
15665;SDS011;20725;51.196;3.510;2023-03-24T11:55:53;5.97;;;2.40;;
15665;SDS011;20725;51.196;3.510;2023-03-24T11:58:26;6.70;;;2.30;;
15665;SDS011;20725;51.196;3.510;2023-03-24T12:00:56;9.77;;;2.53;;
15665;SDS011;20725;51.196;3.510;2023-03-24T12:03:39;8.63;;;2.80;;
15665;SDS011;20725;51.196;3.510;2023-03-24T12:06:14;6.63;;;2.37;;
15665;SDS011;20725;51.196;3.510;2023-03-24T12:08:47;11.23;;;2.80;;
15665;SDS011;20725;51.196;3.510;2023-03-24T12:11:20;10.97;;;2.73;;
15665;SDS011;20725;51.196;3.510;2023-03-24T12:13:50;4.80;;;2.07;;
15665;SDS011;20725;51.196;3.510;2023-03-24T12:16:21;7.17;;;2.00;;
15665;SDS011;20725;51.196;3.510;2023-03-24T12:21:41;6.27;;;2.70;;
15665;SDS011;20725;51.196;3.510;2023-03-24T12:24:14;4.30;;;1.90;;
15665;SDS011;20725;51.196;3.510;2023-03-24T12:26:48;4.37;;;1.53;;
15665;SDS011;20725;51.196;3.510;2023-03-24T12:29:30;3.33;;;1.73;;
15665;SDS011;20725;51.196;3.510;2023-03-24T12:32:04;7.37;;;2.03;;
15665;SDS011;20725;51.196;3.510;2023-03-24T12:34:38;5.47;;;2.10;;
15665;SDS011;20725;51.196;3.510;2023-03-24T12:37:09;6.10;;;2.17;;
15665;SDS011;20725;51.196;3.510;2023-03-24T12:39:40;7.77;;;2.27;;
15665;SDS011;20725;51.196;3.510;2023-03-24T12:42:12;5.40;;;2.37;;
15665;SDS011;20725;51.196;3.510;2023-03-24T12:44:45;9.60;;;2.60;;
15665;SDS011;20725;51.196;3.510;2023-03-24T12:47:19;11.50;;;2.80;;
15665;SDS011;20725;51.196;3.510;2023-03-24T12:49:54;7.23;;;2.20;;
15665;SDS011;20725;51.196;3.510;2023-03-24T12:52:31;8.37;;;2.40;;
15665;SDS011;20725;51.196;3.510;2023-03-24T12:55:01;8.17;;;2.60;;
15665;SDS011;20725;51.196;3.510;2023-03-24T12:57:33;7.90;;;2.70;;
15665;SDS011;20725;51.196;3.510;2023-03-24T13:00:02;11.80;;;2.50;;
15665;SDS011;20725;51.196;3.510;2023-03-24T13:02:32;4.60;;;2.03;;
15665;SDS011;20725;51.196;3.510;2023-03-24T13:05:02;7.37;;;2.27;;
15665;SDS011;20725;51.196;3.510;2023-03-24T13:07:32;9.23;;;1.83;;
15665;SDS011;20725;51.196;3.510;2023-03-24T13:10:04;7.63;;;2.10;;
15665;SDS011;20725;51.196;3.510;2023-03-24T13:12:34;9.30;;;2.17;;
15665;SDS011;20725;51.196;3.510;2023-03-24T13:15:05;5.77;;;2.33;;
15665;SDS011;20725;51.196;3.510;2023-03-24T13:17:33;11.07;;;2.40;;
15665;SDS011;20725;51.196;3.510;2023-03-24T13:20:02;7.57;;;2.33;;
15665;SDS011;20725;51.196;3.510;2023-03-24T13:22:32;6.70;;;2.60;;
15665;SDS011;20725;51.196;3.510;2023-03-24T13:24:59;7.53;;;2.43;;
15665;SDS011;20725;51.196;3.510;2023-03-24T13:27:28;8.83;;;2.23;;
15665;SDS011;20725;51.196;3.510;2023-03-24T13:30:05;7.83;;;2.57;;
15665;SDS011;20725;51.196;3.510;2023-03-24T13:32:36;8.30;;;2.57;;
15665;SDS011;20725;51.196;3.510;2023-03-24T13:35:09;7.80;;;2.30;;
15665;SDS011;20725;51.196;3.510;2023-03-24T13:37:38;6.37;;;1.83;;
15665;SDS011;20725;51.196;3.510;2023-03-24T13:40:08;9.37;;;2.77;;
15665;SDS011;20725;51.196;3.510;2023-03-24T13:42:40;8.43;;;2.40;;
15665;SDS011;20725;51.196;3.510;2023-03-24T13:45:17;6.57;;;2.37;;
15665;SDS011;20725;51.196;3.510;2023-03-24T13:47:48;5.80;;;1.80;;
15665;SDS011;20725;51.196;3.510;2023-03-24T13:50:15;3.60;;;1.70;;
15665;SDS011;20725;51.196;3.510;2023-03-24T13:52:43;5.27;;;1.77;;
15665;SDS011;20725;51.196;3.510;2023-03-24T13:55:12;6.83;;;1.97;;
15665;SDS011;20725;51.196;3.510;2023-03-24T13:57:40;4.43;;;1.90;;
15665;SDS011;20725;51.196;3.510;2023-03-24T14:00:18;6.40;;;1.80;;
15665;SDS011;20725;51.196;3.510;2023-03-24T14:02:46;7.70;;;2.00;;
15665;SDS011;20725;51.196;3.510;2023-03-24T14:05:29;5.07;;;2.00;;
15665;SDS011;20725;51.196;3.510;2023-03-24T14:10:45;4.87;;;1.97;;
15665;SDS011;20725;51.196;3.510;2023-03-24T14:13:20;4.53;;;1.63;;
15665;SDS011;20725;51.196;3.510;2023-03-24T14:15:49;5.27;;;2.00;;
15665;SDS011;20725;51.196;3.510;2023-03-24T14:21:03;7.37;;;2.20;;
15665;SDS011;20725;51.196;3.510;2023-03-24T14:23:32;7.23;;;2.30;;
15665;SDS011;20725;51.196;3.510;2023-03-24T14:26:01;8.50;;;2.43;;
15665;SDS011;20725;51.196;3.510;2023-03-24T14:28:30;7.07;;;2.03;;
15665;SDS011;20725;51.196;3.510;2023-03-24T14:31:01;6.37;;;1.73;;
15665;SDS011;20725;51.196;3.510;2023-03-24T14:33:29;7.13;;;2.27;;
15665;SDS011;20725;51.196;3.510;2023-03-24T14:35:56;2.90;;;1.17;;
15665;SDS011;20725;51.196;3.510;2023-03-24T14:38:25;7.60;;;1.83;;
15665;SDS011;20725;51.196;3.510;2023-03-24T14:40:55;7.03;;;2.10;;
15665;SDS011;20725;51.196;3.510;2023-03-24T14:43:23;5.73;;;2.00;;
15665;SDS011;20725;51.196;3.510;2023-03-24T14:45:53;3.43;;;1.30;;
15665;SDS011;20725;51.196;3.510;2023-03-24T14:48:24;5.30;;;1.70;;
15665;SDS011;20725;51.196;3.510;2023-03-24T14:50:53;9.23;;;1.93;;
15665;SDS011;20725;51.196;3.510;2023-03-24T14:53:21;3.30;;;1.63;;
15665;SDS011;20725;51.196;3.510;2023-03-24T14:55:49;7.47;;;2.27;;
15665;SDS011;20725;51.196;3.510;2023-03-24T14:58:19;5.73;;;2.10;;
15665;SDS011;20725;51.196;3.510;2023-03-24T15:00:49;6.77;;;2.30;;
15665;SDS011;20725;51.196;3.510;2023-03-24T15:03:17;6.60;;;2.10;;
15665;SDS011;20725;51.196;3.510;2023-03-24T15:05:48;6.37;;;2.07;;
15665;SDS011;20725;51.196;3.510;2023-03-24T15:08:16;6.87;;;2.10;;
15665;SDS011;20725;51.196;3.510;2023-03-24T15:10:46;8.07;;;1.80;;
15665;SDS011;20725;51.196;3.510;2023-03-24T15:15:59;6.07;;;2.13;;
15665;SDS011;20725;51.196;3.510;2023-03-24T15:18:27;10.73;;;2.43;;
15665;SDS011;20725;51.196;3.510;2023-03-24T15:20:56;4.67;;;1.90;;
15665;SDS011;20725;51.196;3.510;2023-03-24T15:23:24;7.23;;;2.23;;